N80EM KMCI-KBFI
Flight info
| Callsign | N80EM |
|---|---|
| Flight time | N/A |
| Altitude | 38000 |
| Route | CHIEF9 CATTS HLC GLL OCS J20 PIH BKE PDT J20 YKM CHINS5 |
| Aircraft | C750/M-SBDE3FGHRWXY/S |
Departure
| Time | 2026-04-30 04:55 |
|---|---|
| Airport | Kansas City International Airport (KMCI) |
Arrival
| Time | N/A |
|---|---|
| Airport | King County International Airport - Boeing Field (KBFI) |
| Time | Latitude | Longitude | Altitude | Speed | Heading |
|---|---|---|---|---|---|
| 2026-04-30 04:38 | 39.31364 | -94.71834 | 1011 ft | 0 kts | 287° |
| 2026-04-30 04:48 | 39.31368 | -94.71840 | 1011 ft | 2 kts | 320° |
| 2026-04-30 04:48 | 39.31382 | -94.71847 | 1011 ft | 4 kts | 341° |
| 2026-04-30 04:48 | 39.31419 | -94.71885 | 1011 ft | 7 kts | 297° |
| 2026-04-30 04:49 | 39.31433 | -94.71952 | 1011 ft | 7 kts | 281° |
| 2026-04-30 04:49 | 39.31438 | -94.72010 | 1011 ft | 6 kts | 257° |
| 2026-04-30 04:49 | 39.31409 | -94.72043 | 1011 ft | 8 kts | 204° |
| 2026-04-30 04:49 | 39.31347 | -94.72064 | 1011 ft | 10 kts | 193° |
| 2026-04-30 04:50 | 39.31275 | -94.72079 | 1011 ft | 11 kts | 187° |
| 2026-04-30 04:50 | 39.31197 | -94.72103 | 1011 ft | 12 kts | 195° |
| 2026-04-30 04:50 | 39.31111 | -94.72133 | 1011 ft | 13 kts | 194° |
| 2026-04-30 04:50 | 39.31015 | -94.72163 | 1011 ft | 15 kts | 193° |
| 2026-04-30 04:51 | 39.30903 | -94.72196 | 1011 ft | 18 kts | 193° |
| 2026-04-30 04:51 | 39.30771 | -94.72235 | 1011 ft | 21 kts | 193° |
| 2026-04-30 04:51 | 39.30629 | -94.72277 | 1011 ft | 22 kts | 193° |
| 2026-04-30 04:51 | 39.30474 | -94.72322 | 1011 ft | 23 kts | 193° |
| 2026-04-30 04:52 | 39.30327 | -94.72366 | 1011 ft | 21 kts | 193° |
| 2026-04-30 04:52 | 39.30194 | -94.72405 | 1011 ft | 19 kts | 193° |
| 2026-04-30 04:52 | 39.30074 | -94.72440 | 1011 ft | 17 kts | 193° |
| 2026-04-30 04:52 | 39.29967 | -94.72471 | 1011 ft | 15 kts | 193° |
| 2026-04-30 04:53 | 39.29869 | -94.72500 | 1011 ft | 16 kts | 193° |
| 2026-04-30 04:53 | 39.29735 | -94.72542 | 1011 ft | 24 kts | 194° |
| 2026-04-30 04:53 | 39.29556 | -94.72593 | 1011 ft | 27 kts | 193° |
| 2026-04-30 04:53 | 39.29384 | -94.72645 | 1011 ft | 22 kts | 192° |
| 2026-04-30 04:54 | 39.29304 | -94.72714 | 1010 ft | 12 kts | 271° |
| 2026-04-30 04:54 | 39.29304 | -94.72813 | 1010 ft | 11 kts | 271° |
| 2026-04-30 04:54 | 39.29353 | -94.72909 | 1008 ft | 18 kts | 334° |
| 2026-04-30 04:54 | 39.29571 | -94.72866 | 1011 ft | 65 kts | 13° |
| 2026-04-30 04:55 | 39.30315 | -94.72643 | 1019 ft | 143 kts | 13° |
| 2026-04-30 04:55 | 39.31274 | -94.72354 | 1622 ft | 136 kts | 14° |
| 2026-04-30 04:55 | 39.32221 | -94.72108 | 2217 ft | 146 kts | 12° |
| 2026-04-30 04:55 | 39.33255 | -94.71871 | 2755 ft | 155 kts | 12° |
| 2026-04-30 04:56 | 39.34330 | -94.71609 | 3374 ft | 159 kts | 12° |
| 2026-04-30 04:56 | 39.35436 | -94.71517 | 3958 ft | 165 kts | 345° |
| 2026-04-30 04:56 | 39.36247 | -94.72583 | 4492 ft | 180 kts | 295° |
| 2026-04-30 04:56 | 39.36596 | -94.74165 | 5210 ft | 189 kts | 278° |
| 2026-04-30 04:57 | 39.36421 | -94.75884 | 5974 ft | 194 kts | 264° |
| 2026-04-30 04:57 | 39.36221 | -94.77612 | 6815 ft | 195 kts | 267° |
| 2026-04-30 04:57 | 39.36040 | -94.79360 | 7635 ft | 198 kts | 267° |
| 2026-04-30 04:57 | 39.35840 | -94.81141 | 8504 ft | 201 kts | 267° |
| 2026-04-30 04:58 | 39.35635 | -94.82936 | 9409 ft | 202 kts | 267° |
| 2026-04-30 04:58 | 39.35432 | -94.84723 | 10296 ft | 200 kts | 268° |
| 2026-04-30 04:58 | 39.35232 | -94.86484 | 11113 ft | 196 kts | 268° |
| 2026-04-30 04:58 | 39.35036 | -94.88216 | 11929 ft | 193 kts | 268° |
| 2026-04-30 04:59 | 39.34842 | -94.89920 | 12752 ft | 190 kts | 267° |
| 2026-04-30 04:59 | 39.34653 | -94.91591 | 13576 ft | 187 kts | 267° |
| 2026-04-30 04:59 | 39.34468 | -94.93215 | 14337 ft | 183 kts | 267° |
| 2026-04-30 04:59 | 39.34285 | -94.94828 | 15050 ft | 180 kts | 268° |
| 2026-04-30 05:00 | 39.34104 | -94.96415 | 15755 ft | 177 kts | 268° |
| 2026-04-30 05:00 | 39.33926 | -94.97980 | 16466 ft | 175 kts | 268° |
| 2026-04-30 05:00 | 39.33749 | -94.99528 | 17190 ft | 173 kts | 268° |
| 2026-04-30 05:00 | 39.33574 | -95.01061 | 17910 ft | 172 kts | 269° |
| 2026-04-30 05:01 | 39.33399 | -95.02587 | 18609 ft | 171 kts | 269° |
| 2026-04-30 05:01 | 39.33225 | -95.04099 | 19225 ft | 170 kts | 269° |
| 2026-04-30 05:01 | 39.33053 | -95.05598 | 19832 ft | 165 kts | 269° |
| 2026-04-30 05:01 | 39.32884 | -95.07064 | 20392 ft | 166 kts | 269° |
| 2026-04-30 05:02 | 39.32715 | -95.08557 | 20840 ft | 175 kts | 269° |
| 2026-04-30 05:02 | 39.32530 | -95.10232 | 20916 ft | 202 kts | 268° |
| 2026-04-30 05:02 | 39.32311 | -95.12144 | 20986 ft | 229 kts | 267° |
| 2026-04-30 05:02 | 39.32061 | -95.14288 | 21062 ft | 254 kts | 266° |
| 2026-04-30 05:03 | 39.31786 | -95.16654 | 21136 ft | 278 kts | 266° |
| 2026-04-30 05:03 | 39.31487 | -95.19227 | 21208 ft | 301 kts | 266° |
| 2026-04-30 05:03 | 39.31165 | -95.21993 | 21264 ft | 322 kts | 265° |
| 2026-04-30 05:03 | 39.30821 | -95.24943 | 21310 ft | 342 kts | 265° |
| 2026-04-30 05:04 | 39.30457 | -95.28060 | 21352 ft | 360 kts | 265° |
| 2026-04-30 05:04 | 39.30076 | -95.31279 | 21895 ft | 363 kts | 265° |
| 2026-04-30 05:04 | 39.29698 | -95.34510 | 22437 ft | 366 kts | 265° |
| 2026-04-30 05:04 | 39.29548 | -95.37797 | 22919 ft | 368 kts | 272° |
| 2026-04-30 05:05 | 39.29608 | -95.41107 | 23493 ft | 370 kts | 273° |
| 2026-04-30 05:05 | 39.29646 | -95.44439 | 23989 ft | 373 kts | 273° |
| 2026-04-30 05:05 | 39.29675 | -95.47798 | 24481 ft | 375 kts | 273° |
| 2026-04-30 05:06 | 39.29764 | -95.54505 | 25458 ft | 378 kts | 273° |
| 2026-04-30 05:06 | 39.29804 | -95.57900 | 25935 ft | 380 kts | 273° |
| 2026-04-30 05:06 | 39.29840 | -95.61319 | 26417 ft | 382 kts | 273° |
| 2026-04-30 05:06 | 39.29877 | -95.64751 | 26898 ft | 384 kts | 273° |
| 2026-04-30 05:07 | 39.29916 | -95.68207 | 27382 ft | 386 kts | 273° |
| 2026-04-30 05:07 | 39.29953 | -95.71677 | 27855 ft | 388 kts | 272° |
| 2026-04-30 05:07 | 39.29988 | -95.75172 | 28304 ft | 391 kts | 272° |
| 2026-04-30 05:07 | 39.30022 | -95.78690 | 28790 ft | 393 kts | 272° |
| 2026-04-30 05:08 | 39.30056 | -95.82223 | 29252 ft | 395 kts | 272° |
| 2026-04-30 05:08 | 39.30090 | -95.85783 | 29716 ft | 398 kts | 272° |
| 2026-04-30 05:08 | 39.30122 | -95.89356 | 30180 ft | 400 kts | 272° |
| 2026-04-30 05:08 | 39.30153 | -95.92958 | 30590 ft | 401 kts | 272° |
| 2026-04-30 05:09 | 39.30183 | -95.96563 | 31068 ft | 401 kts | 272° |
| 2026-04-30 05:09 | 39.30212 | -96.00149 | 31674 ft | 397 kts | 272° |
| 2026-04-30 05:09 | 39.30239 | -96.03691 | 32356 ft | 392 kts | 272° |
| 2026-04-30 05:09 | 39.30265 | -96.07188 | 33022 ft | 387 kts | 272° |
| 2026-04-30 05:10 | 39.30290 | -96.10645 | 33677 ft | 382 kts | 272° |
| 2026-04-30 05:10 | 39.30313 | -96.14056 | 34312 ft | 377 kts | 272° |
| 2026-04-30 05:10 | 39.30335 | -96.17430 | 34790 ft | 375 kts | 272° |
| 2026-04-30 05:10 | 39.30357 | -96.20791 | 35247 ft | 374 kts | 272° |
| 2026-04-30 05:11 | 39.30376 | -96.24143 | 35703 ft | 373 kts | 272° |
| 2026-04-30 05:11 | 39.30395 | -96.27486 | 36165 ft | 372 kts | 272° |
| 2026-04-30 05:11 | 39.30412 | -96.30828 | 36633 ft | 371 kts | 272° |
| 2026-04-30 05:11 | 39.30429 | -96.34152 | 37107 ft | 370 kts | 272° |
| 2026-04-30 05:12 | 39.30445 | -96.37474 | 37581 ft | 369 kts | 271° |
| 2026-04-30 05:12 | 39.30459 | -96.40699 | 38008 ft | 363 kts | 271° |
| 2026-04-30 05:12 | 39.30487 | -96.47321 | 37997 ft | 370 kts | 271° |
| 2026-04-30 05:13 | 39.30511 | -96.54122 | 38014 ft | 388 kts | 271° |
| 2026-04-30 05:13 | 39.30531 | -96.61246 | 38023 ft | 406 kts | 271° |
| 2026-04-30 05:14 | 39.30548 | -96.68671 | 38024 ft | 422 kts | 271° |
| 2026-04-30 05:14 | 39.30561 | -96.76382 | 38019 ft | 435 kts | 271° |
| 2026-04-30 05:15 | 39.30567 | -96.84199 | 38015 ft | 436 kts | 271° |
| 2026-04-30 05:15 | 39.30570 | -96.92039 | 38005 ft | 436 kts | 271° |
| 2026-04-30 05:16 | 39.30566 | -96.99872 | 37989 ft | 436 kts | 271° |
| 2026-04-30 05:16 | 39.30558 | -97.07703 | 37986 ft | 436 kts | 271° |
| 2026-04-30 05:17 | 39.30545 | -97.15493 | 37988 ft | 436 kts | 271° |
| 2026-04-30 05:17 | 39.30526 | -97.23320 | 37989 ft | 436 kts | 271° |
| 2026-04-30 05:18 | 39.30502 | -97.31155 | 37985 ft | 436 kts | 271° |
| 2026-04-30 05:18 | 39.30473 | -97.38984 | 38102 ft | 435 kts | 271° |
| 2026-04-30 05:19 | 39.30438 | -97.46809 | 38160 ft | 437 kts | 271° |
| 2026-04-30 05:19 | 39.30398 | -97.54640 | 38156 ft | 436 kts | 270° |
| 2026-04-30 05:20 | 39.30354 | -97.62476 | 38157 ft | 436 kts | 270° |
| 2026-04-30 05:20 | 39.30303 | -97.70317 | 38161 ft | 437 kts | 270° |
| 2026-04-30 05:21 | 39.30248 | -97.78155 | 38155 ft | 437 kts | 270° |
| 2026-04-30 05:21 | 39.30186 | -97.85991 | 38152 ft | 437 kts | 270° |
| 2026-04-30 05:22 | 39.30121 | -97.93835 | 38156 ft | 437 kts | 270° |
| 2026-04-30 05:22 | 39.30049 | -98.01676 | 38153 ft | 437 kts | 270° |
| 2026-04-30 05:23 | 39.29973 | -98.09469 | 38156 ft | 437 kts | 270° |
| 2026-04-30 05:23 | 39.29891 | -98.17309 | 38157 ft | 437 kts | 270° |
| 2026-04-30 05:24 | 39.29804 | -98.25150 | 38161 ft | 437 kts | 270° |
| 2026-04-30 05:24 | 39.29712 | -98.32998 | 38161 ft | 437 kts | 270° |
| 2026-04-30 05:25 | 39.29614 | -98.40842 | 38157 ft | 437 kts | 270° |
| 2026-04-30 05:25 | 39.29511 | -98.48699 | 38157 ft | 437 kts | 270° |
| 2026-04-30 05:26 | 39.29403 | -98.56543 | 38155 ft | 437 kts | 270° |
| 2026-04-30 05:26 | 39.29289 | -98.64399 | 38156 ft | 437 kts | 270° |
| 2026-04-30 05:27 | 39.29170 | -98.72248 | 38132 ft | 437 kts | 270° |
| 2026-04-30 05:27 | 39.29046 | -98.80101 | 38158 ft | 438 kts | 270° |
| 2026-04-30 05:28 | 39.28916 | -98.87946 | 38161 ft | 437 kts | 269° |
| 2026-04-30 05:28 | 39.28805 | -98.94468 | 38163 ft | 437 kts | 269° |
| 2026-04-30 05:29 | 39.28666 | -99.02311 | 38164 ft | 437 kts | 269° |
| 2026-04-30 05:29 | 39.28522 | -99.10156 | 38165 ft | 437 kts | 269° |
| 2026-04-30 05:30 | 39.28372 | -99.17996 | 38162 ft | 436 kts | 269° |
| 2026-04-30 05:30 | 39.28218 | -99.25833 | 38168 ft | 437 kts | 269° |
| 2026-04-30 05:31 | 39.28058 | -99.33666 | 38166 ft | 437 kts | 269° |
| 2026-04-30 05:31 | 39.27893 | -99.41501 | 38171 ft | 437 kts | 269° |
| 2026-04-30 05:32 | 39.27723 | -99.49329 | 38175 ft | 435 kts | 269° |
| 2026-04-30 05:32 | 39.27548 | -99.57130 | 38181 ft | 435 kts | 269° |
| 2026-04-30 05:33 | 39.27368 | -99.64939 | 38178 ft | 435 kts | 269° |
| 2026-04-30 05:33 | 39.27182 | -99.72747 | 38184 ft | 435 kts | 269° |
| 2026-04-30 05:34 | 39.26993 | -99.80499 | 38182 ft | 435 kts | 269° |
| 2026-04-30 05:34 | 39.26798 | -99.88279 | 38180 ft | 432 kts | 269° |
| 2026-04-30 05:35 | 39.26598 | -99.96034 | 38185 ft | 432 kts | 269° |
| 2026-04-30 05:35 | 39.26393 | -100.03798 | 38186 ft | 433 kts | 269° |
| 2026-04-30 05:36 | 39.26183 | -100.11555 | 38190 ft | 433 kts | 269° |
| 2026-04-30 05:36 | 39.26239 | -100.19308 | 38182 ft | 433 kts | 275° |
| 2026-04-30 05:37 | 39.27378 | -100.26904 | 38183 ft | 432 kts | 283° |
| 2026-04-30 05:37 | 39.29498 | -100.34187 | 38184 ft | 434 kts | 288° |
| 2026-04-30 05:38 | 39.31727 | -100.41437 | 38194 ft | 434 kts | 288° |
| 2026-04-30 05:38 | 39.33979 | -100.48688 | 38185 ft | 437 kts | 288° |
| 2026-04-30 05:39 | 39.36232 | -100.56008 | 38195 ft | 439 kts | 288° |
| 2026-04-30 05:39 | 39.38485 | -100.63324 | 38178 ft | 437 kts | 287° |
| 2026-04-30 05:40 | 39.40706 | -100.70567 | 38191 ft | 437 kts | 287° |
| 2026-04-30 05:40 | 39.42942 | -100.77876 | 38197 ft | 437 kts | 287° |
| 2026-04-30 05:41 | 39.45172 | -100.85183 | 38203 ft | 437 kts | 287° |
| 2026-04-30 05:41 | 39.47396 | -100.92493 | 38206 ft | 437 kts | 287° |
| 2026-04-30 05:42 | 39.49618 | -100.99812 | 38208 ft | 436 kts | 287° |
| 2026-04-30 05:42 | 39.51837 | -101.07149 | 38213 ft | 441 kts | 287° |
| 2026-04-30 05:43 | 39.54077 | -101.14565 | 38212 ft | 442 kts | 287° |
| 2026-04-30 05:43 | 39.56313 | -101.21992 | 38206 ft | 442 kts | 287° |
| 2026-04-30 05:44 | 39.58541 | -101.29416 | 38183 ft | 442 kts | 287° |
| 2026-04-30 05:44 | 39.60769 | -101.36855 | 38178 ft | 442 kts | 287° |
| 2026-04-30 05:45 | 39.62987 | -101.44287 | 38176 ft | 442 kts | 287° |
| 2026-04-30 05:45 | 39.65185 | -101.51672 | 38175 ft | 442 kts | 287° |
| 2026-04-30 05:46 | 39.67395 | -101.59117 | 38226 ft | 442 kts | 287° |
| 2026-04-30 05:46 | 39.69614 | -101.66614 | 38184 ft | 446 kts | 287° |
| 2026-04-30 05:47 | 39.71835 | -101.74130 | 38180 ft | 445 kts | 287° |
| 2026-04-30 05:47 | 39.74047 | -101.81650 | 38181 ft | 445 kts | 287° |
| 2026-04-30 05:48 | 39.76254 | -101.89165 | 38182 ft | 445 kts | 287° |
| 2026-04-30 05:48 | 39.78456 | -101.96691 | 38180 ft | 445 kts | 287° |
| 2026-04-30 05:49 | 39.80653 | -102.04216 | 38182 ft | 445 kts | 287° |
| 2026-04-30 05:49 | 39.82848 | -102.11759 | 38181 ft | 445 kts | 287° |
| 2026-04-30 05:50 | 39.85040 | -102.19311 | 38180 ft | 448 kts | 287° |
| 2026-04-30 05:50 | 39.87234 | -102.26890 | 38182 ft | 447 kts | 287° |
| 2026-04-30 05:51 | 39.89420 | -102.34471 | 38180 ft | 447 kts | 287° |
| 2026-04-30 05:51 | 39.91603 | -102.42057 | 38166 ft | 447 kts | 287° |
| 2026-04-30 05:52 | 39.93773 | -102.49618 | 38168 ft | 446 kts | 287° |
| 2026-04-30 05:52 | 39.95940 | -102.57196 | 38169 ft | 446 kts | 287° |
| 2026-04-30 05:53 | 39.98087 | -102.64724 | 38173 ft | 446 kts | 287° |
| 2026-04-30 05:53 | 40.00242 | -102.72303 | 38171 ft | 446 kts | 287° |
| 2026-04-30 05:54 | 40.02394 | -102.79889 | 38174 ft | 446 kts | 287° |
| 2026-04-30 05:54 | 40.04541 | -102.87485 | 38173 ft | 446 kts | 287° |
| 2026-04-30 05:55 | 40.06681 | -102.95077 | 38169 ft | 446 kts | 286° |
| 2026-04-30 05:55 | 40.08817 | -103.02679 | 38168 ft | 446 kts | 286° |
| 2026-04-30 05:56 | 40.10949 | -103.10284 | 38169 ft | 446 kts | 286° |
| 2026-04-30 05:56 | 40.13076 | -103.17896 | 38194 ft | 447 kts | 286° |
| 2026-04-30 05:57 | 40.15202 | -103.25528 | 38203 ft | 448 kts | 286° |
| 2026-04-30 05:57 | 40.17337 | -103.33219 | 38198 ft | 450 kts | 286° |
| 2026-04-30 05:58 | 40.19470 | -103.40915 | 38190 ft | 450 kts | 286° |
| 2026-04-30 05:58 | 40.21595 | -103.48616 | 38180 ft | 450 kts | 286° |
| 2026-04-30 05:59 | 40.23707 | -103.56294 | 38170 ft | 453 kts | 286° |
| 2026-04-30 05:59 | 40.25459 | -103.62672 | 38183 ft | 452 kts | 286° |